Time,TemperatureF,DewpointF,PressureIn,WindDirection,WindDirectionDegrees,WindSpeedMPH,WindSpeedGustMPH,Humidity,HourlyPrecipIn,Conditions,Clouds,dailyrainin,SoftwareType,DateUTC
2013-05-21 00:09:00,74.1,26.4,29.71,SSW,192,5.0,10.0,17,0.00,CLR,,0.00,WeatherDisplay:10.37,2013-05-21 07:09:00,
2013-05-21 00:19:00,74.4,26.7,29.71,SSW,205,5.0,10.0,17,0.00,CLR,,0.00,WeatherDisplay:10.37,2013-05-21 07:19:00,
2013-05-21 00:29:00,74.4,26.7,29.70,SSW,202,8.0,13.0,17,0.00,CLR,,0.00,WeatherDisplay:10.37,2013-05-21 07:29:00,
2013-05-21 00:39:00,74.7,25.5,29.70,SSW,204,10.0,14.0,16,0.00,CLR,,0.00,WeatherDisplay:10.37,2013-05-21 07:39:00,
2013-05-21 00:49:00,74.6,25.4,29.70,SSW,209,8.0,13.0,16,0.00,CLR,,0.00,WeatherDisplay:10.37,2013-05-21 07:49:00,
2013-05-21 00:59:00,74.4,25.2,29.70,SSW,211,7.0,12.0,16,0.00,CLR,,0.00,WeatherDisplay:10.37,2013-05-21 07:59:00,
2013-05-21 01:04:00,74.4,25.2,29.70,SSW,203,6.0,12.0,16,0.00,CLR,,0.00,WeatherDisplay:10.37,2013-05-21 08:04:00,
2013-05-21 01:09:00,73.9,24.9,29.70,SSW,203,5.0,7.0,16,0.00,CLR,,0.00,WeatherDisplay:10.37,2013-05-21 08:09:00,
2013-05-21 01:19:00,73.5,26.0,29.69,South,184,2.0,9.0,17,0.00,CLR,,0.00,WeatherDisplay:10.37,2013-05-21 08:19:00,
2013-05-21 01:29:00,72.8,25.4,29.69,South,179,6.0,12.0,17,0.00,CLR,,0.00,WeatherDisplay:10.37,2013-05-21 08:29:00,
2013-05-21 01:39:00,73.5,26.0,29.69,SSW,195,9.0,15.0,17,0.00,CLR,,0.00,WeatherDisplay:10.37,2013-05-21 08:39:00,
2013-05-21 01:49:00,73.4,25.9,29.68,SSW,200,6.0,12.0,17,0.00,CLR,,0.00,WeatherDisplay:10.37,2013-05-21 08:49:00,
2013-05-21 01:59:00,72.8,25.4,29.68,SSW,196,5.0,12.0,17,0.00,CLR,,0.00,WeatherDisplay:10.37,2013-05-21 08:59:00,
2013-05-21 02:04:00,72.7,25.4,29.68,SSW,198,5.0,12.0,17,0.00,CLR,,0.00,WeatherDisplay:10.37,2013-05-21 09:04:00,
2013-05-21 02:09:00,72.5,25.2,29.67,SSW,197,7.0,14.0,17,0.00,CLR,,0.00,WeatherDisplay:10.37,2013-05-21 09:09:00,
2013-05-21 02:19:00,71.8,26.0,29.68,SSW,204,7.0,12.0,18,0.00,CLR,,0.00,WeatherDisplay:10.37,2013-05-21 09:19:00,
2013-05-21 02:29:00,70.8,25.2,29.67,SSW,195,7.0,10.0,18,0.00,CLR,,0.00,WeatherDisplay:10.37,2013-05-21 09:29:00,
2013-05-21 02:39:00,69.9,25.7,29.67,SSW,208,6.0,9.0,19,0.00,CLR,,0.00,WeatherDisplay:10.37,2013-05-21 09:39:00,
2013-05-21 02:49:00,70.8,25.1,29.67,SSW,211,6.0,9.0,18,0.00,CLR,,0.00,WeatherDisplay:10.37,2013-05-21 09:49:00,
2013-05-21 02:59:00,70.1,24.6,29.67,SSW,210,2.0,6.0,18,0.00,CLR,,0.00,WeatherDisplay:10.37,2013-05-21 09:59:00,
2013-05-21 03:04:00,69.4,24.0,29.67,SSW,210,1.0,3.0,18,0.00,CLR,,0.00,WeatherDisplay:10.37,2013-05-21 10:04:00,
2013-05-21 03:09:00,68.9,24.9,29.67,SSW,210,1.0,5.0,19,0.00,CLR,,0.00,WeatherDisplay:10.37,2013-05-21 10:09:00,
2013-05-21 03:19:00,69.6,24.2,29.66,SSW,211,2.0,6.0,18,0.00,CLR,,0.00,WeatherDisplay:10.37,2013-05-21 10:19:00,
2013-05-21 03:29:00,69.9,24.4,29.66,SSW,198,3.0,10.0,18,0.00,CLR,,0.00,WeatherDisplay:10.37,2013-05-21 10:29:00,
2013-05-21 03:39:00,69.1,25.1,29.66,SSW,202,3.0,7.0,19,0.00,CLR,,0.00,WeatherDisplay:10.37,2013-05-21 10:39:00,
2013-05-21 03:49:00,68.8,24.8,29.66,SSW,202,0.0,6.0,19,0.00,CLR,,0.00,WeatherDisplay:10.37,2013-05-21 10:49:00,
2013-05-21 03:59:00,67.5,25.0,29.66,SSW,202,0.0,2.0,20,0.00,CLR,,0.00,WeatherDisplay:10.37,2013-05-21 10:59:00,
2013-05-21 04:04:00,65.9,23.7,29.67,SSW,202,0.0,0.0,20,0.00,CLR,,0.00,WeatherDisplay:10.37,2013-05-21 11:04:00,
2013-05-21 04:09:00,64.7,23.8,29.67,SSW,202,0.0,0.0,21,0.00,CLR,,0.00,WeatherDisplay:10.37,2013-05-21 11:09:00,
2013-05-21 04:19:00,64.6,23.7,29.67,SSW,202,2.0,6.0,21,0.00,CLR,,0.00,WeatherDisplay:10.37,2013-05-21 11:19:00,
2013-05-21 04:29:00,65.5,23.3,29.67,SSW,202,0.0,2.0,20,0.00,CLR,,0.00,WeatherDisplay:10.37,2013-05-21 11:29:00,
2013-05-21 04:39:00,65.2,24.3,29.67,SSW,202,0.0,0.0,21,0.00,CLR,,0.00,WeatherDisplay:10.37,2013-05-21 11:39:00,
2013-05-21 04:49:00,65.0,22.9,29.67,SSW,202,0.0,0.0,20,0.00,CLR,,0.00,WeatherDisplay:10.37,2013-05-21 11:49:00,
2013-05-21 04:59:00,65.2,24.3,29.67,SSW,202,2.0,4.0,21,0.00,CLR,,0.00,WeatherDisplay:10.37,2013-05-21 11:59:00,
2013-05-21 05:04:00,66.1,22.6,29.67,SSW,202,0.0,5.0,19,0.00,CLR,,0.00,WeatherDisplay:10.37,2013-05-21 12:04:00,
2013-05-21 05:09:00,66.5,20.3,29.67,SSW,202,0.0,0.0,17,0.00,CLR,,0.00,WeatherDisplay:10.37,2013-05-21 12:09:00,
2013-05-21 05:19:00,66.4,21.6,29.67,SSW,202,0.0,0.0,18,0.00,CLR,,0.00,WeatherDisplay:10.37,2013-05-21 12:19:00,
2013-05-21 05:29:00,65.7,23.5,29.68,SSW,202,0.0,0.0,20,0.00,CLR,,0.00,WeatherDisplay:10.37,2013-05-21 12:29:00,
2013-05-21 05:39:00,66.1,23.8,29.68,SSW,202,2.0,6.0,20,0.00,CLR,,0.00,WeatherDisplay:10.37,2013-05-21 12:39:00,
2013-05-21 05:49:00,66.9,23.3,29.68,SSW,202,0.0,2.0,19,0.00,CLR,,0.00,WeatherDisplay:10.37,2013-05-21 12:49:00,
2013-05-21 05:59:00,66.9,22.0,29.67,SSW,202,1.0,4.0,18,0.00,CLR,,0.00,WeatherDisplay:10.37,2013-05-21 12:59:00,
2013-05-21 06:04:00,67.0,23.3,29.67,SSW,202,1.0,3.0,19,0.00,CLR,,0.00,WeatherDisplay:10.37,2013-05-21 13:04:00,
2013-05-21 06:09:00,67.3,23.6,29.68,SSW,202,0.0,0.0,19,0.00,CLR,,0.00,WeatherDisplay:10.37,2013-05-21 13:09:00,
2013-05-21 06:19:00,67.1,22.1,29.68,SSW,202,0.0,0.0,18,0.00,CLR,,0.00,WeatherDisplay:10.37,2013-05-21 13:19:00,
2013-05-21 06:29:00,66.4,22.9,29.69,SSW,202,0.0,0.0,19,0.00,CLR,,0.00,WeatherDisplay:10.37,2013-05-21 13:29:00,
2013-05-21 06:39:00,64.7,23.8,29.69,SSW,202,5.0,6.0,21,0.00,CLR,,0.00,WeatherDisplay:10.37,2013-05-21 13:39:00,
2013-05-21 06:49:00,63.9,24.3,29.69,SSW,202,2.0,3.0,22,0.00,CLR,,0.00,WeatherDisplay:10.37,2013-05-21 13:49:00,
2013-05-21 06:59:00,64.6,25.9,29.69,SSW,202,0.0,0.0,23,0.00,CLR,,0.00,WeatherDisplay:10.37,2013-05-21 13:59:00,
2013-05-21 07:04:00,65.6,25.7,29.69,SSW,202,0.0,0.0,22,0.00,CLR,,0.00,WeatherDisplay:10.37,2013-05-21 14:04:00,
2013-05-21 07:09:00,66.0,28.1,29.69,SSW,202,0.0,0.0,24,0.00,CLR,,0.00,WeatherDisplay:10.37,2013-05-21 14:09:00,
2013-05-21 07:19:00,68.4,25.8,29.69,SSW,202,1.0,3.0,20,0.00,CLR,,0.00,WeatherDisplay:10.37,2013-05-21 14:19:00,
2013-05-21 07:29:00,70.5,24.9,29.69,SSW,202,0.0,2.0,18,0.00,CLR,,0.00,WeatherDisplay:10.37,2013-05-21 14:29:00,
2013-05-21 07:39:00,71.1,25.4,29.69,SSW,202,1.0,5.0,18,0.00,CLR,,0.00,WeatherDisplay:10.37,2013-05-21 14:39:00,
2013-05-21 07:49:00,71.3,24.2,29.69,SSW,202,0.0,0.0,17,0.00,CLR,,0.00,WeatherDisplay:10.37,2013-05-21 14:49:00,
2013-05-21 07:59:00,70.9,25.3,29.69,SSW,202,1.0,4.0,18,0.00,CLR,,0.00,WeatherDisplay:10.37,2013-05-21 14:59:00,
2013-05-21 08:04:00,71.0,25.3,29.69,SSW,202,1.0,5.0,18,0.00,CLR,,0.00,WeatherDisplay:10.37,2013-05-21 15:04:00,
2013-05-21 08:09:00,71.1,26.7,29.69,SSW,202,2.0,4.0,19,0.00,CLR,,0.00,WeatherDisplay:10.37,2013-05-21 15:09:00,
2013-05-21 08:19:00,71.9,24.7,29.69,SSW,202,0.0,4.0,17,0.00,CLR,,0.00,WeatherDisplay:10.37,2013-05-21 15:19:00,
2013-05-21 08:29:00,72.6,25.2,29.70,SSW,202,1.0,3.0,17,0.00,CLR,,0.00,WeatherDisplay:10.37,2013-05-21 15:29:00,
2013-05-21 08:39:00,72.8,25.4,29.70,SSW,202,1.0,4.0,17,0.00,CLR,,0.00,WeatherDisplay:10.37,2013-05-21 15:39:00,
2013-05-21 08:49:00,73.5,26.0,29.70,SSW,202,2.0,4.0,17,0.00,CLR,,0.00,WeatherDisplay:10.37,2013-05-21 15:49:00,
2013-05-21 08:59:00,73.9,24.8,29.70,SSW,202,2.0,5.0,16,0.00,CLR,,0.00,WeatherDisplay:10.37,2013-05-21 15:59:00,
2013-05-21 09:04:00,74.0,24.9,29.70,SSW,202,0.0,4.0,16,0.00,CLR,,0.00,WeatherDisplay:10.37,2013-05-21 16:04:00,
2013-05-21 09:09:00,74.6,25.4,29.69,SSW,202,0.0,0.0,16,0.00,CLR,,0.00,WeatherDisplay:10.37,2013-05-21 16:09:00,
2013-05-21 09:19:00,74.9,25.6,29.69,SSW,202,2.0,4.0,16,0.00,CLR,,0.00,WeatherDisplay:10.37,2013-05-21 16:19:00,
2013-05-21 09:29:00,75.1,25.8,29.68,SSW,202,1.0,4.0,16,0.00,CLR,,0.00,WeatherDisplay:10.37,2013-05-21 16:29:00,
2013-05-21 09:39:00,75.6,24.6,29.67,SSW,202,0.0,4.0,15,0.00,CLR,,0.00,WeatherDisplay:10.37,2013-05-21 16:39:00,
2013-05-21 09:49:00,76.1,25.1,29.68,SSW,202,1.0,4.0,15,0.00,CLR,,0.00,WeatherDisplay:10.37,2013-05-21 16:49:00,
2013-05-21 09:59:00,76.7,25.5,29.67,SSW,210,1.0,6.0,15,0.00,CLR,,0.00,WeatherDisplay:10.37,2013-05-21 16:59:00,
2013-05-21 10:04:00,77.2,24.3,29.67,SW,216,2.0,5.0,14,0.00,CLR,,0.00,WeatherDisplay:10.37,2013-05-21 17:04:00,
2013-05-21 10:09:00,77.4,24.4,29.67,SW,216,2.0,4.0,14,0.00,CLR,,0.00,WeatherDisplay:10.37,2013-05-21 17:09:00,
2013-05-21 10:19:00,77.6,24.6,29.67,SW,216,1.0,3.0,14,0.00,CLR,,0.00,WeatherDisplay:10.37,2013-05-21 17:19:00,
2013-05-21 10:29:00,78.3,25.2,29.66,SW,216,0.0,2.0,14,0.00,CLR,,0.00,WeatherDisplay:10.37,2013-05-21 17:29:00,
2013-05-21 10:39:00,79.2,24.0,29.66,SW,216,0.0,2.0,13,0.00,CLR,,0.00,WeatherDisplay:10.37,2013-05-21 17:39:00,
2013-05-21 10:49:00,80.5,23.2,29.65,SW,216,0.0,1.0,12,0.00,CLR,,0.00,WeatherDisplay:10.37,2013-05-21 17:49:00,
2013-05-21 10:59:00,82.4,22.6,29.64,SW,216,3.0,5.0,11,0.00,CLR,,0.00,WeatherDisplay:10.37,2013-05-21 17:59:00,
2013-05-21 11:04:00,82.8,22.9,29.64,WNW,303,3.0,10.0,11,0.00,CLR,,0.00,WeatherDisplay:10.37,2013-05-21 18:04:00,
2013-05-21 11:09:00,83.3,23.3,29.64,NW,317,0.0,2.0,11,0.00,CLR,,0.00,WeatherDisplay:10.37,2013-05-21 18:09:00,
2013-05-21 11:19:00,83.7,21.3,29.63,West,280,1.0,7.0,10,0.00,CLR,,0.00,WeatherDisplay:10.37,2013-05-21 18:19:00,
2013-05-21 11:29:00,84.7,22.1,29.63,WSW,256,6.0,16.0,10,0.00,CLR,,0.00,WeatherDisplay:10.37,2013-05-21 18:29:00,
2013-05-21 11:39:00,86.2,17.9,29.62,West,259,20.0,26.0,8,0.00,CLR,,0.00,WeatherDisplay:10.37,2013-05-21 18:39:00,
2013-05-21 11:49:00,87.2,18.7,29.62,WSW,257,15.0,22.0,8,0.00,CLR,,0.00,WeatherDisplay:10.37,2013-05-21 18:49:00,
2013-05-21 11:59:00,87.9,19.3,29.61,WSW,249,16.0,30.0,8,0.00,CLR,,0.00,WeatherDisplay:10.37,2013-05-21 18:59:00,
2013-05-21 12:04:00,87.8,16.0,29.60,WSW,244,22.0,29.0,7,0.00,CLR,,0.00,WeatherDisplay:10.37,2013-05-21 19:04:00,
2013-05-21 12:09:00,87.2,21.5,29.60,WSW,237,21.0,26.0,9,0.00,CLR,,0.00,WeatherDisplay:10.37,2013-05-21 19:09:00,
2013-05-21 12:19:00,87.3,15.7,29.60,SW,234,20.0,28.0,7,0.00,CLR,,0.00,WeatherDisplay:10.37,2013-05-21 19:19:00,
2013-05-21 12:29:00,87.8,16.1,29.59,WSW,242,23.0,31.0,7,0.00,CLR,,0.00,WeatherDisplay:10.37,2013-05-21 19:29:00,
2013-05-21 12:39:00,87.4,18.9,29.59,SW,228,25.0,32.0,8,0.00,CLR,,0.00,WeatherDisplay:10.37,2013-05-21 19:39:00,
2013-05-21 12:49:00,87.2,18.7,29.60,SW,216,24.0,32.0,8,0.00,CLR,,0.00,WeatherDisplay:10.37,2013-05-21 19:49:00,
2013-05-21 12:59:00,87.2,15.6,29.60,SW,216,23.0,30.0,7,0.00,CLR,,0.00,WeatherDisplay:10.37,2013-05-21 19:59:00,
2013-05-21 13:09:00,87.2,18.7,29.59,SSW,205,16.0,28.0,8,0.00,CLR,,0.00,WeatherDisplay:10.37,2013-05-21 20:09:00,
2013-05-21 13:19:00,87.0,15.5,29.59,SSW,205,16.0,27.0,7,0.00,CLR,,0.00,WeatherDisplay:10.37,2013-05-21 20:19:00,
2013-05-21 13:29:00,87.0,18.6,29.59,SSW,203,15.0,21.0,8,0.00,CLR,,0.00,WeatherDisplay:10.37,2013-05-21 20:29:00,
2013-05-21 13:39:00,87.6,19.0,29.59,SSW,199,15.0,20.0,8,0.00,CLR,,0.00,WeatherDisplay:10.37,2013-05-21 20:39:00,
2013-05-21 13:49:00,87.9,16.1,29.58,SW,215,15.0,23.0,7,0.00,CLR,,0.00,WeatherDisplay:10.37,2013-05-21 20:49:00,
2013-05-21 13:59:00,88.8,16.7,29.57,WSW,241,15.0,21.0,7,0.00,CLR,,0.00,WeatherDisplay:10.37,2013-05-21 20:59:00,
2013-05-21 14:04:00,88.8,16.8,29.57,SW,234,17.0,23.0,7,0.00,CLR,,0.00,WeatherDisplay:10.37,2013-05-21 21:04:00,
2013-05-21 14:09:00,88.1,19.3,29.57,SW,215,10.0,23.0,8,0.00,CLR,,0.00,WeatherDisplay:10.37,2013-05-21 21:09:00,
2013-05-21 14:19:00,88.8,16.8,29.57,SW,214,17.0,25.0,7,0.00,CLR,,0.00,WeatherDisplay:10.37,2013-05-21 21:19:00,
2013-05-21 14:29:00,90.0,17.6,29.56,SW,225,16.0,23.0,7,0.00,CLR,,0.00,WeatherDisplay:10.37,2013-05-21 21:29:00,
2013-05-21 14:39:00,90.1,20.9,29.56,SSW,212,17.0,26.0,8,0.00,CLR,,0.00,WeatherDisplay:10.37,2013-05-21 21:39:00,
2013-05-21 14:49:00,91.0,18.4,29.55,SW,228,20.0,26.0,7,0.00,CLR,,0.00,WeatherDisplay:10.37,2013-05-21 21:49:00,
2013-05-21 14:59:00,91.4,18.7,29.55,SW,221,13.0,29.0,7,0.00,CLR,,0.00,WeatherDisplay:10.37,2013-05-21 21:59:00,
2013-05-21 15:04:00,91.2,18.6,29.54,SW,226,22.0,27.0,7,0.00,CLR,,0.00,WeatherDisplay:10.37,2013-05-21 22:04:00,
2013-05-21 15:09:00,91.1,18.4,29.54,SW,232,16.0,26.0,7,0.00,CLR,,0.00,WeatherDisplay:10.37,2013-05-21 22:09:00,
2013-05-21 15:19:00,90.8,18.2,29.54,SSW,213,21.0,27.0,7,0.00,CLR,,0.00,WeatherDisplay:10.37,2013-05-21 22:19:00,
2013-05-21 15:29:00,90.9,21.5,29.55,WSW,238,18.0,25.0,8,0.00,CLR,,0.00,WeatherDisplay:10.37,2013-05-21 22:29:00,
2013-05-21 15:39:00,89.9,20.7,29.55,WSW,255,18.0,26.0,8,0.00,CLR,,0.00,WeatherDisplay:10.37,2013-05-21 22:39:00,
2013-05-21 15:49:00,89.7,17.4,29.55,WSW,248,21.0,30.0,7,0.00,CLR,,0.00,WeatherDisplay:10.37,2013-05-21 22:49:00,
2013-05-21 15:59:00,89.2,17.0,29.55,WSW,252,22.0,31.0,7,0.00,CLR,,0.00,WeatherDisplay:10.37,2013-05-21 22:59:00,
2013-05-21 16:04:00,89.3,17.1,29.54,WSW,246,20.0,31.0,7,0.00,CLR,,0.00,WeatherDisplay:10.37,2013-05-21 23:04:00,
2013-05-21 16:09:00,89.2,17.1,29.54,WSW,250,22.0,27.0,7,0.00,CLR,,0.00,WeatherDisplay:10.37,2013-05-21 23:09:00,
2013-05-21 16:19:00,88.7,16.7,29.53,WSW,251,24.0,32.0,7,0.00,CLR,,0.00,WeatherDisplay:10.37,2013-05-21 23:19:00,
2013-05-21 16:29:00,88.8,16.8,29.53,WSW,250,24.0,33.0,7,0.00,CLR,,0.00,WeatherDisplay:10.37,2013-05-21 23:29:00,
2013-05-21 16:39:00,88.7,16.7,29.52,WSW,238,22.0,32.0,7,0.00,CLR,,0.00,WeatherDisplay:10.37,2013-05-21 23:39:00,
2013-05-21 16:49:00,88.0,16.2,29.52,WSW,242,24.0,30.0,7,0.00,CLR,,0.00,WeatherDisplay:10.37,2013-05-21 23:49:00,
2013-05-21 16:59:00,87.4,18.9,29.52,WSW,244,25.0,35.0,8,0.00,CLR,,0.00,WeatherDisplay:10.37,2013-05-21 23:59:00,
2013-05-21 17:04:00,87.5,21.7,29.52,WSW,245,24.0,33.0,9,0.00,CLR,,0.00,WeatherDisplay:10.37,2013-05-22 00:04:00,
2013-05-21 17:09:00,87.4,21.6,29.52,WSW,242,28.0,32.0,9,0.00,CLR,,0.00,WeatherDisplay:10.37,2013-05-22 00:09:00,
2013-05-21 17:19:00,87.2,18.7,29.52,WSW,237,25.0,33.0,8,0.00,CLR,,0.00,WeatherDisplay:10.37,2013-05-22 00:19:00,
2013-05-21 17:29:00,86.7,21.1,29.51,SW,234,24.0,35.0,9,0.00,CLR,,0.00,WeatherDisplay:10.37,2013-05-22 00:29:00,
2013-05-21 17:39:00,86.6,18.3,29.51,WSW,248,23.0,29.0,8,0.00,CLR,,0.00,WeatherDisplay:10.37,2013-05-22 00:39:00,
2013-05-21 17:49:00,86.1,20.6,29.51,WSW,247,22.0,30.0,9,0.00,CLR,,0.00,WeatherDisplay:10.37,2013-05-22 00:49:00,
2013-05-21 17:59:00,85.8,20.5,29.51,WSW,245,20.0,31.0,9,0.00,CLR,,0.00,WeatherDisplay:10.37,2013-05-22 00:59:00,
2013-05-21 18:04:00,85.9,20.5,29.50,WSW,246,16.0,25.0,9,0.00,CLR,,0.00,WeatherDisplay:10.37,2013-05-22 01:04:00,
2013-05-21 18:09:00,85.5,20.2,29.50,WSW,242,23.0,30.0,9,0.00,CLR,,0.00,WeatherDisplay:10.37,2013-05-22 01:09:00,
2013-05-21 18:19:00,84.9,22.2,29.50,WSW,240,22.0,33.0,10,0.00,CLR,,0.00,WeatherDisplay:10.37,2013-05-22 01:19:00,
2013-05-21 18:29:00,84.5,21.9,29.49,WSW,244,25.0,34.0,10,0.00,CLR,,0.00,WeatherDisplay:10.37,2013-05-22 01:29:00,
2013-05-21 18:39:00,84.0,21.6,29.50,WSW,239,23.0,33.0,10,0.00,CLR,,0.00,WeatherDisplay:10.37,2013-05-22 01:39:00,
2013-05-21 18:49:00,83.3,21.0,29.50,SW,232,25.0,33.0,10,0.00,CLR,,0.00,WeatherDisplay:10.37,2013-05-22 01:49:00,
2013-05-21 18:59:00,82.7,22.8,29.50,SW,234,23.0,35.0,11,0.00,CLR,,0.00,WeatherDisplay:10.37,2013-05-22 01:59:00,
2013-05-21 19:04:00,82.4,22.6,29.50,SW,233,20.0,31.0,11,0.00,CLR,,0.00,WeatherDisplay:10.37,2013-05-22 02:04:00,
2013-05-21 19:09:00,82.0,22.3,29.50,SW,229,22.0,31.0,11,0.00,CLR,,0.00,WeatherDisplay:10.37,2013-05-22 02:09:00,
2013-05-21 19:19:00,81.4,21.8,29.51,SW,228,18.0,26.0,11,0.00,CLR,,0.00,WeatherDisplay:10.37,2013-05-22 02:19:00,
2013-05-21 19:29:00,80.7,21.3,29.51,SW,228,22.0,32.0,11,0.00,CLR,,0.00,WeatherDisplay:10.37,2013-05-22 02:29:00,
2013-05-21 19:39:00,80.1,20.8,29.51,SW,214,14.0,27.0,11,0.00,CLR,,0.00,WeatherDisplay:10.37,2013-05-22 02:39:00,
2013-05-21 19:49:00,79.6,18.2,29.53,SW,223,16.0,26.0,10,0.00,CLR,,0.00,WeatherDisplay:10.37,2013-05-22 02:49:00,
2013-05-21 19:59:00,78.8,19.8,29.54,SSW,205,8.0,16.0,11,0.00,CLR,,0.00,WeatherDisplay:10.37,2013-05-22 02:59:00,
2013-05-21 20:04:00,78.5,19.6,29.54,SSW,212,13.0,18.0,11,0.00,CLR,,0.00,WeatherDisplay:10.37,2013-05-22 03:04:00,
2013-05-21 20:09:00,78.3,19.4,29.55,SW,216,12.0,17.0,11,0.00,CLR,,0.00,WeatherDisplay:10.37,2013-05-22 03:09:00,
2013-05-21 20:19:00,78.1,19.3,29.55,SSW,206,13.0,22.0,11,0.00,CLR,,0.00,WeatherDisplay:10.37,2013-05-22 03:19:00,
2013-05-21 20:29:00,77.6,18.9,29.54,SW,217,18.0,24.0,11,0.00,CLR,,0.00,WeatherDisplay:10.37,2013-05-22 03:29:00,
2013-05-21 20:39:00,77.1,18.5,29.52,SW,226,21.0,26.0,11,0.00,CLR,,0.00,WeatherDisplay:10.37,2013-05-22 03:39:00,
2013-05-21 20:49:00,77.1,18.5,29.54,SW,234,17.0,25.0,11,0.00,CLR,,0.00,WeatherDisplay:10.37,2013-05-22 03:49:00,
2013-05-21 20:59:00,76.8,18.3,29.55,SW,232,17.0,22.0,11,0.00,CLR,,0.00,WeatherDisplay:10.37,2013-05-22 03:59:00,
2013-05-21 21:04:00,76.7,18.2,29.55,SW,229,14.0,20.0,11,0.00,CLR,,0.00,WeatherDisplay:10.37,2013-05-22 04:04:00,
2013-05-21 21:14:00,76.7,18.2,29.55,SW,228,17.0,23.0,11,0.00,CLR,,0.00,WeatherDisplay:10.37,2013-05-22 04:14:00,
2013-05-21 21:19:00,76.5,18.0,29.56,SW,226,15.0,23.0,11,0.00,CLR,,0.00,WeatherDisplay:10.37,2013-05-22 04:19:00,
2013-05-21 21:24:00,76.1,17.7,29.55,SW,222,17.0,20.0,11,0.00,CLR,,0.00,WeatherDisplay:10.37,2013-05-22 04:24:00,
2013-05-21 21:29:00,76.0,17.7,29.55,SW,220,16.0,21.0,11,0.00,CLR,,0.00,WeatherDisplay:10.37,2013-05-22 04:29:00,
2013-05-21 21:39:00,75.3,19.1,29.55,SW,236,15.0,20.0,12,0.00,CLR,,0.00,WeatherDisplay:10.37,2013-05-22 04:39:00,
2013-05-21 21:44:00,75.3,19.1,29.55,SW,236,17.0,23.0,12,0.00,CLR,,0.00,WeatherDisplay:10.37,2013-05-22 04:44:00,
2013-05-21 21:49:00,75.2,20.9,29.55,SW,235,17.0,22.0,13,0.00,CLR,,0.00,WeatherDisplay:10.37,2013-05-22 04:49:00,
2013-05-21 21:59:00,75.3,21.0,29.55,SW,232,17.0,23.0,13,0.00,CLR,,0.00,WeatherDisplay:10.37,2013-05-22 04:59:00,
2013-05-21 22:04:00,75.0,20.8,29.55,SW,229,16.0,20.0,13,0.00,CLR,,0.00,WeatherDisplay:10.37,2013-05-22 05:04:00,
2013-05-21 22:09:00,75.1,20.9,29.55,SW,224,20.0,24.0,13,0.00,CLR,,0.00,WeatherDisplay:10.37,2013-05-22 05:09:00,
2013-05-21 22:19:00,74.7,20.5,29.55,SW,218,18.0,23.0,13,0.00,CLR,,0.00,WeatherDisplay:10.37,2013-05-22 05:19:00,
2013-05-21 22:29:00,74.2,21.9,29.53,SW,218,17.0,23.0,14,0.00,CLR,,0.00,WeatherDisplay:10.37,2013-05-22 05:29:00,
2013-05-21 22:39:00,74.2,21.9,29.53,SW,220,21.0,26.0,14,0.00,CLR,,0.00,WeatherDisplay:10.37,2013-05-22 05:39:00,
2013-05-21 22:49:00,74.2,21.9,29.52,SW,214,18.0,26.0,14,0.00,CLR,,0.00,WeatherDisplay:10.37,2013-05-22 05:49:00,
2013-05-21 22:59:00,74.2,23.5,29.52,SW,222,20.0,23.0,15,0.00,CLR,,0.00,WeatherDisplay:10.37,2013-05-22 05:59:00,
2013-05-21 23:04:00,74.1,23.5,29.52,SW,224,18.0,22.0,15,0.00,CLR,,0.00,WeatherDisplay:10.37,2013-05-22 06:04:00,
2013-05-21 23:09:00,74.0,23.4,29.52,SW,225,17.0,23.0,15,0.00,CLR,,0.00,WeatherDisplay:10.37,2013-05-22 06:09:00,
2013-05-21 23:19:00,73.9,23.3,29.52,SW,220,22.0,25.0,15,0.00,CLR,,0.00,WeatherDisplay:10.37,2013-05-22 06:19:00,
2013-05-21 23:29:00,73.3,22.8,29.51,SW,219,20.0,27.0,15,0.00,CLR,,0.00,WeatherDisplay:10.37,2013-05-22 06:29:00,
2013-05-21 23:39:00,73.5,24.5,29.50,SW,235,23.0,29.0,16,0.00,CLR,,0.00,WeatherDisplay:10.37,2013-05-22 06:39:00,
2013-05-21 23:49:00,72.8,25.4,29.50,SW,234,21.0,25.0,17,0.00,CLR,,0.00,WeatherDisplay:10.37,2013-05-22 06:49:00,
2013-05-21 23:59:00,72.8,25.4,29.50,SW,235,21.0,27.0,17,0.00,CLR,,0.00,WeatherDisplay:10.37,2013-05-22 06:59:00,